sensor_id;sensor_type;location;lat;lon;timestamp;temperature;humidity
27534;DHT22;14973;51.460;7.008;2023-05-10T00:00:39;13.70;99.90
27534;DHT22;14973;51.460;7.008;2023-05-10T00:03:05;13.70;99.90
27534;DHT22;14973;51.460;7.008;2023-05-10T00:05:31;13.60;99.90
27534;DHT22;14973;51.460;7.008;2023-05-10T00:07:56;13.60;99.90
27534;DHT22;14973;51.460;7.008;2023-05-10T00:10:22;13.60;99.90
27534;DHT22;14973;51.460;7.008;2023-05-10T00:12:47;13.60;99.90
27534;DHT22;14973;51.460;7.008;2023-05-10T00:15:13;13.50;99.90
27534;DHT22;14973;51.460;7.008;2023-05-10T00:17:38;13.50;99.90
27534;DHT22;14973;51.460;7.008;2023-05-10T00:20:04;13.60;99.90
27534;DHT22;14973;51.460;7.008;2023-05-10T00:22:30;13.60;99.90
27534;DHT22;14973;51.460;7.008;2023-05-10T00:24:57;13.60;99.90
27534;DHT22;14973;51.460;7.008;2023-05-10T00:27:22;13.60;99.90
27534;DHT22;14973;51.460;7.008;2023-05-10T00:29:48;13.60;99.90
27534;DHT22;14973;51.460;7.008;2023-05-10T00:32:14;13.60;99.90
27534;DHT22;14973;51.460;7.008;2023-05-10T00:34:39;13.60;99.90
27534;DHT22;14973;51.460;7.008;2023-05-10T00:37:05;13.60;99.90
27534;DHT22;14973;51.460;7.008;2023-05-10T00:39:30;13.60;99.90
27534;DHT22;14973;51.460;7.008;2023-05-10T00:41:56;13.60;99.90
27534;DHT22;14973;51.460;7.008;2023-05-10T00:44:21;13.60;99.90
27534;DHT22;14973;51.460;7.008;2023-05-10T00:46:47;13.70;99.90
27534;DHT22;14973;51.460;7.008;2023-05-10T00:49:13;13.60;99.90
27534;DHT22;14973;51.460;7.008;2023-05-10T00:51:39;13.60;99.90
27534;DHT22;14973;51.460;7.008;2023-05-10T00:54:04;13.60;99.90
27534;DHT22;14973;51.460;7.008;2023-05-10T00:56:30;13.60;99.90
27534;DHT22;14973;51.460;7.008;2023-05-10T00:58:56;13.60;99.90
27534;DHT22;14973;51.460;7.008;2023-05-10T01:01:22;13.60;99.90
27534;DHT22;14973;51.460;7.008;2023-05-10T01:03:48;13.50;99.90
27534;DHT22;14973;51.460;7.008;2023-05-10T01:06:13;13.40;99.90
27534;DHT22;14973;51.460;7.008;2023-05-10T01:14:45;13.50;99.90
27534;DHT22;14973;51.460;7.008;2023-05-10T01:17:11;13.40;99.90
27534;DHT22;14973;51.460;7.008;2023-05-10T01:19:37;13.40;99.90
27534;DHT22;14973;51.460;7.008;2023-05-10T01:25:32;13.30;99.90
27534;DHT22;14973;51.460;7.008;2023-05-10T01:35:18;13.30;99.90
27534;DHT22;14973;51.460;7.008;2023-05-10T01:37:50;13.30;99.90
27534;DHT22;14973;51.460;7.008;2023-05-10T01:42:46;13.30;99.90
27534;DHT22;14973;51.460;7.008;2023-05-10T01:47:40;13.20;99.90
27534;DHT22;14973;51.460;7.008;2023-05-10T01:50:09;13.20;99.90
27534;DHT22;14973;51.460;7.008;2023-05-10T01:52:41;13.20;99.90
27534;DHT22;14973;51.460;7.008;2023-05-10T01:55:08;13.30;99.90
27534;DHT22;14973;51.460;7.008;2023-05-10T01:57:38;13.30;99.90
27534;DHT22;14973;51.460;7.008;2023-05-10T02:00:07;13.30;99.90
27534;DHT22;14973;51.460;7.008;2023-05-10T02:02:35;13.20;99.90
27534;DHT22;14973;51.460;7.008;2023-05-10T02:05:02;13.20;99.90
27534;DHT22;14973;51.460;7.008;2023-05-10T02:07:29;13.30;99.90
27534;DHT22;14973;51.460;7.008;2023-05-10T02:09:55;13.30;99.90
27534;DHT22;14973;51.460;7.008;2023-05-10T02:12:21;13.20;99.90
27534;DHT22;14973;51.460;7.008;2023-05-10T02:14:49;13.20;99.90
27534;DHT22;14973;51.460;7.008;2023-05-10T02:17:16;13.20;99.90
27534;DHT22;14973;51.460;7.008;2023-05-10T02:19:41;13.20;99.90
27534;DHT22;14973;51.460;7.008;2023-05-10T02:22:09;13.10;99.90
27534;DHT22;14973;51.460;7.008;2023-05-10T02:24:34;13.10;99.90
27534;DHT22;14973;51.460;7.008;2023-05-10T02:27:02;13.10;99.90
27534;DHT22;14973;51.460;7.008;2023-05-10T02:29:28;13.10;99.90
27534;DHT22;14973;51.460;7.008;2023-05-10T02:31:54;13.00;99.90
27534;DHT22;14973;51.460;7.008;2023-05-10T02:34:25;13.00;99.90
27534;DHT22;14973;51.460;7.008;2023-05-10T02:36:51;13.00;99.90
27534;DHT22;14973;51.460;7.008;2023-05-10T02:39:18;13.00;99.90
27534;DHT22;14973;51.460;7.008;2023-05-10T02:41:44;13.00;99.90
27534;DHT22;14973;51.460;7.008;2023-05-10T02:44:10;13.00;99.90
27534;DHT22;14973;51.460;7.008;2023-05-10T02:46:37;13.00;99.90
27534;DHT22;14973;51.460;7.008;2023-05-10T02:49:02;13.00;99.90
27534;DHT22;14973;51.460;7.008;2023-05-10T02:51:30;13.00;99.90
27534;DHT22;14973;51.460;7.008;2023-05-10T02:54:01;12.90;99.90
27534;DHT22;14973;51.460;7.008;2023-05-10T02:56:29;12.90;99.90
27534;DHT22;14973;51.460;7.008;2023-05-10T02:58:56;12.90;99.90
27534;DHT22;14973;51.460;7.008;2023-05-10T03:01:22;13.00;99.90
27534;DHT22;14973;51.460;7.008;2023-05-10T03:03:48;13.00;99.90
27534;DHT22;14973;51.460;7.008;2023-05-10T03:06:14;13.00;99.90
27534;DHT22;14973;51.460;7.008;2023-05-10T03:08:41;13.00;99.90
27534;DHT22;14973;51.460;7.008;2023-05-10T03:18:43;13.00;99.90
27534;DHT22;14973;51.460;7.008;2023-05-10T03:21:10;13.00;99.90
27534;DHT22;14973;51.460;7.008;2023-05-10T03:23:45;13.10;99.90
27534;DHT22;14973;51.460;7.008;2023-05-10T03:26:17;13.10;99.90
27534;DHT22;14973;51.460;7.008;2023-05-10T03:28:43;13.00;99.90
27534;DHT22;14973;51.460;7.008;2023-05-10T03:31:09;13.00;99.90
27534;DHT22;14973;51.460;7.008;2023-05-10T03:33:34;13.00;99.90
27534;DHT22;14973;51.460;7.008;2023-05-10T03:36:00;13.00;99.90
27534;DHT22;14973;51.460;7.008;2023-05-10T03:38:26;13.00;99.90
27534;DHT22;14973;51.460;7.008;2023-05-10T03:40:51;13.00;99.90
27534;DHT22;14973;51.460;7.008;2023-05-10T03:43:17;13.00;99.90
27534;DHT22;14973;51.460;7.008;2023-05-10T03:45:42;13.00;99.90
27534;DHT22;14973;51.460;7.008;2023-05-10T03:48:08;13.00;99.90
27534;DHT22;14973;51.460;7.008;2023-05-10T03:50:33;13.00;99.90
27534;DHT22;14973;51.460;7.008;2023-05-10T03:52:59;13.10;99.90
27534;DHT22;14973;51.460;7.008;2023-05-10T03:55:24;13.10;99.90
27534;DHT22;14973;51.460;7.008;2023-05-10T03:57:50;13.00;99.90
27534;DHT22;14973;51.460;7.008;2023-05-10T04:00:16;13.10;99.90
27534;DHT22;14973;51.460;7.008;2023-05-10T04:02:41;13.10;99.90
27534;DHT22;14973;51.460;7.008;2023-05-10T04:05:07;13.10;99.90
27534;DHT22;14973;51.460;7.008;2023-05-10T04:07:33;13.10;99.90
27534;DHT22;14973;51.460;7.008;2023-05-10T04:09:58;13.20;99.90
27534;DHT22;14973;51.460;7.008;2023-05-10T04:12:24;13.20;99.90
27534;DHT22;14973;51.460;7.008;2023-05-10T04:14:49;13.20;99.90
27534;DHT22;14973;51.460;7.008;2023-05-10T04:17:16;13.20;99.90
27534;DHT22;14973;51.460;7.008;2023-05-10T04:19:41;13.20;99.90
27534;DHT22;14973;51.460;7.008;2023-05-10T04:22:07;13.20;99.90
27534;DHT22;14973;51.460;7.008;2023-05-10T04:24:32;13.30;99.90
27534;DHT22;14973;51.460;7.008;2023-05-10T04:26:58;13.30;99.90
27534;DHT22;14973;51.460;7.008;2023-05-10T04:29:24;13.30;99.90
27534;DHT22;14973;51.460;7.008;2023-05-10T04:31:49;13.30;99.90
27534;DHT22;14973;51.460;7.008;2023-05-10T04:34:16;13.30;99.90
27534;DHT22;14973;51.460;7.008;2023-05-10T04:36:41;13.40;99.90
27534;DHT22;14973;51.460;7.008;2023-05-10T04:39:07;13.40;99.90
27534;DHT22;14973;51.460;7.008;2023-05-10T04:41:32;13.40;99.90
27534;DHT22;14973;51.460;7.008;2023-05-10T04:43:58;13.40;99.90
27534;DHT22;14973;51.460;7.008;2023-05-10T04:46:23;13.30;99.90
27534;DHT22;14973;51.460;7.008;2023-05-10T04:48:49;13.40;99.90
27534;DHT22;14973;51.460;7.008;2023-05-10T04:51:14;13.50;99.90
27534;DHT22;14973;51.460;7.008;2023-05-10T04:53:40;13.40;99.90
27534;DHT22;14973;51.460;7.008;2023-05-10T04:56:06;13.50;99.90
27534;DHT22;14973;51.460;7.008;2023-05-10T04:58:32;13.50;99.90
27534;DHT22;14973;51.460;7.008;2023-05-10T05:00:59;13.60;99.90
27534;DHT22;14973;51.460;7.008;2023-05-10T05:03:29;13.50;99.90
27534;DHT22;14973;51.460;7.008;2023-05-10T05:05:55;13.60;99.90
27534;DHT22;14973;51.460;7.008;2023-05-10T05:08:20;13.60;99.90
27534;DHT22;14973;51.460;7.008;2023-05-10T05:10:47;13.50;99.90
27534;DHT22;14973;51.460;7.008;2023-05-10T05:13:15;13.60;99.90
27534;DHT22;14973;51.460;7.008;2023-05-10T05:15:40;13.60;99.90
27534;DHT22;14973;51.460;7.008;2023-05-10T05:18:06;13.70;99.90
27534;DHT22;14973;51.460;7.008;2023-05-10T05:20:32;13.70;99.90
27534;DHT22;14973;51.460;7.008;2023-05-10T05:22:58;13.70;99.90
27534;DHT22;14973;51.460;7.008;2023-05-10T05:25:24;13.70;99.90
27534;DHT22;14973;51.460;7.008;2023-05-10T05:27:50;13.70;99.90
27534;DHT22;14973;51.460;7.008;2023-05-10T05:30:15;13.80;99.90
27534;DHT22;14973;51.460;7.008;2023-05-10T05:32:41;13.90;99.90
27534;DHT22;14973;51.460;7.008;2023-05-10T05:35:07;13.80;99.90
27534;DHT22;14973;51.460;7.008;2023-05-10T05:37:32;14.00;99.90
27534;DHT22;14973;51.460;7.008;2023-05-10T05:39:58;13.90;99.90
27534;DHT22;14973;51.460;7.008;2023-05-10T05:42:23;13.90;99.90
27534;DHT22;14973;51.460;7.008;2023-05-10T05:44:49;14.00;99.90
27534;DHT22;14973;51.460;7.008;2023-05-10T05:47:14;14.00;99.90
27534;DHT22;14973;51.460;7.008;2023-05-10T05:49:40;14.10;99.90
27534;DHT22;14973;51.460;7.008;2023-05-10T05:52:06;14.20;99.90
27534;DHT22;14973;51.460;7.008;2023-05-10T05:54:31;14.10;99.90
27534;DHT22;14973;51.460;7.008;2023-05-10T05:56:57;14.20;99.90
27534;DHT22;14973;51.460;7.008;2023-05-10T05:59:23;14.20;99.90
27534;DHT22;14973;51.460;7.008;2023-05-10T06:01:49;14.30;99.90
27534;DHT22;14973;51.460;7.008;2023-05-10T06:04:14;14.30;99.90
27534;DHT22;14973;51.460;7.008;2023-05-10T06:06:40;14.50;99.90
27534;DHT22;14973;51.460;7.008;2023-05-10T06:09:05;14.70;99.90
27534;DHT22;14973;51.460;7.008;2023-05-10T06:11:31;14.90;99.90
27534;DHT22;14973;51.460;7.008;2023-05-10T06:13:59;15.20;99.90
27534;DHT22;14973;51.460;7.008;2023-05-10T06:16:25;15.70;99.90
27534;DHT22;14973;51.460;7.008;2023-05-10T06:18:51;15.90;99.90
27534;DHT22;14973;51.460;7.008;2023-05-10T06:21:17;16.10;99.90
27534;DHT22;14973;51.460;7.008;2023-05-10T06:23:42;16.00;99.90
27534;DHT22;14973;51.460;7.008;2023-05-10T06:26:09;16.10;99.90
27534;DHT22;14973;51.460;7.008;2023-05-10T06:28:35;16.00;99.90
27534;DHT22;14973;51.460;7.008;2023-05-10T06:31:00;15.90;99.90
27534;DHT22;14973;51.460;7.008;2023-05-10T06:33:26;15.70;99.90
27534;DHT22;14973;51.460;7.008;2023-05-10T06:35:52;15.60;99.90
27534;DHT22;14973;51.460;7.008;2023-05-10T06:38:18;15.70;99.90
27534;DHT22;14973;51.460;7.008;2023-05-10T06:40:43;15.70;99.90
27534;DHT22;14973;51.460;7.008;2023-05-10T06:43:10;15.70;99.90
27534;DHT22;14973;51.460;7.008;2023-05-10T06:45:36;15.70;99.90
27534;DHT22;14973;51.460;7.008;2023-05-10T06:48:01;15.70;99.90
27534;DHT22;14973;51.460;7.008;2023-05-10T06:50:27;15.90;99.90
27534;DHT22;14973;51.460;7.008;2023-05-10T06:52:52;16.10;99.90
27534;DHT22;14973;51.460;7.008;2023-05-10T06:55:18;16.10;99.90
27534;DHT22;14973;51.460;7.008;2023-05-10T06:57:44;16.30;99.90
27534;DHT22;14973;51.460;7.008;2023-05-10T07:00:09;16.40;99.90
27534;DHT22;14973;51.460;7.008;2023-05-10T07:02:35;16.50;95.70
27534;DHT22;14973;51.460;7.008;2023-05-10T07:05:01;16.40;98.30
27534;DHT22;14973;51.460;7.008;2023-05-10T07:07:27;16.60;96.90
27534;DHT22;14973;51.460;7.008;2023-05-10T07:09:53;16.70;92.60
27534;DHT22;14973;51.460;7.008;2023-05-10T07:12:18;16.70;96.40
27534;DHT22;14973;51.460;7.008;2023-05-10T07:14:44;16.70;90.70
27534;DHT22;14973;51.460;7.008;2023-05-10T07:17:10;16.70;92.30
27534;DHT22;14973;51.460;7.008;2023-05-10T07:19:35;16.90;92.10
27534;DHT22;14973;51.460;7.008;2023-05-10T07:22:01;17.20;72.00
27534;DHT22;14973;51.460;7.008;2023-05-10T07:24:27;17.60;60.20
27534;DHT22;14973;51.460;7.008;2023-05-10T07:26:52;17.80;49.30
27534;DHT22;14973;51.460;7.008;2023-05-10T07:29:18;17.90;47.50
27534;DHT22;14973;51.460;7.008;2023-05-10T07:31:43;18.10;43.10
27534;DHT22;14973;51.460;7.008;2023-05-10T07:34:09;18.10;49.50
27534;DHT22;14973;51.460;7.008;2023-05-10T07:36:35;18.50;37.10
27534;DHT22;14973;51.460;7.008;2023-05-10T07:39:00;18.90;29.20
27534;DHT22;14973;51.460;7.008;2023-05-10T07:41:26;19.10;99.90
27534;DHT22;14973;51.460;7.008;2023-05-10T07:43:52;19.40;1.00
27534;DHT22;14973;51.460;7.008;2023-05-10T07:46:17;19.20;91.20
27534;DHT22;14973;51.460;7.008;2023-05-10T07:48:45;19.10;1.00
27534;DHT22;14973;51.460;7.008;2023-05-10T07:51:10;18.50;99.90
27534;DHT22;14973;51.460;7.008;2023-05-10T07:53:37;18.10;1.00
27534;DHT22;14973;51.460;7.008;2023-05-10T07:56:20;17.60;1.00
27534;DHT22;14973;51.460;7.008;2023-05-10T07:58:45;17.40;1.00
27534;DHT22;14973;51.460;7.008;2023-05-10T08:01:11;17.20;1.00
27534;DHT22;14973;51.460;7.008;2023-05-10T08:03:36;16.90;5.00
27534;DHT22;14973;51.460;7.008;2023-05-10T08:06:02;17.00;11.90
27534;DHT22;14973;51.460;7.008;2023-05-10T08:08:28;17.00;3.40
27534;DHT22;14973;51.460;7.008;2023-05-10T08:10:54;17.00;1.00
27534;DHT22;14973;51.460;7.008;2023-05-10T08:13:20;16.90;17.70
27534;DHT22;14973;51.460;7.008;2023-05-10T08:15:46;16.80;37.40
27534;DHT22;14973;51.460;7.008;2023-05-10T08:18:12;16.80;22.00
27534;DHT22;14973;51.460;7.008;2023-05-10T08:20:38;16.90;22.40
27534;DHT22;14973;51.460;7.008;2023-05-10T08:23:03;16.90;13.20
27534;DHT22;14973;51.460;7.008;2023-05-10T08:25:29;17.00;1.00
27534;DHT22;14973;51.460;7.008;2023-05-10T08:27:54;17.00;1.00
27534;DHT22;14973;51.460;7.008;2023-05-10T08:30:20;17.10;1.00
27534;DHT22;14973;51.460;7.008;2023-05-10T08:32:46;17.10;9.90
27534;DHT22;14973;51.460;7.008;2023-05-10T08:35:11;17.30;1.00
27534;DHT22;14973;51.460;7.008;2023-05-10T08:37:37;17.60;1.00
27534;DHT22;14973;51.460;7.008;2023-05-10T08:40:02;18.10;1.00
27534;DHT22;14973;51.460;7.008;2023-05-10T08:42:28;18.20;1.00
27534;DHT22;14973;51.460;7.008;2023-05-10T08:44:55;18.40;99.90
27534;DHT22;14973;51.460;7.008;2023-05-10T08:47:22;18.30;99.90
27534;DHT22;14973;51.460;7.008;2023-05-10T08:49:48;18.20;99.90
27534;DHT22;14973;51.460;7.008;2023-05-10T08:52:16;18.20;1.00
27534;DHT22;14973;51.460;7.008;2023-05-10T08:54:42;18.40;99.90
27534;DHT22;14973;51.460;7.008;2023-05-10T08:57:09;18.30;1.00
27534;DHT22;14973;51.460;7.008;2023-05-10T08:59:35;18.20;51.70
27534;DHT22;14973;51.460;7.008;2023-05-10T09:02:03;17.90;1.00
27534;DHT22;14973;51.460;7.008;2023-05-10T09:04:29;17.30;1.00
27534;DHT22;14973;51.460;7.008;2023-05-10T09:06:56;17.10;1.00
27534;DHT22;14973;51.460;7.008;2023-05-10T09:09:21;17.00;3.10
27534;DHT22;14973;51.460;7.008;2023-05-10T09:11:48;17.00;3.90
27534;DHT22;14973;51.460;7.008;2023-05-10T09:14:14;17.20;1.00
27534;DHT22;14973;51.460;7.008;2023-05-10T09:16:40;17.70;1.00
27534;DHT22;14973;51.460;7.008;2023-05-10T09:19:06;18.20;1.00
27534;DHT22;14973;51.460;7.008;2023-05-10T09:21:34;18.60;99.90
27534;DHT22;14973;51.460;7.008;2023-05-10T09:24:05;18.70;99.90
27534;DHT22;14973;51.460;7.008;2023-05-10T09:26:31;19.20;99.90
27534;DHT22;14973;51.460;7.008;2023-05-10T09:28:57;19.20;1.00
27534;DHT22;14973;51.460;7.008;2023-05-10T09:31:23;19.60;1.00
27534;DHT22;14973;51.460;7.008;2023-05-10T09:33:50;20.20;99.90
27534;DHT22;14973;51.460;7.008;2023-05-10T09:36:16;19.90;47.10
27534;DHT22;14973;51.460;7.008;2023-05-10T09:38:45;19.90;99.90
27534;DHT22;14973;51.460;7.008;2023-05-10T09:41:15;19.60;1.00
27534;DHT22;14973;51.460;7.008;2023-05-10T09:43:42;19.40;1.00
27534;DHT22;14973;51.460;7.008;2023-05-10T09:46:08;18.90;99.90
27534;DHT22;14973;51.460;7.008;2023-05-10T09:48:34;18.50;1.00
27534;DHT22;14973;51.460;7.008;2023-05-10T09:50:59;18.60;99.90
27534;DHT22;14973;51.460;7.008;2023-05-10T09:53:25;18.40;99.90
27534;DHT22;14973;51.460;7.008;2023-05-10T09:55:51;18.30;99.90
27534;DHT22;14973;51.460;7.008;2023-05-10T09:58:17;18.40;1.00
27534;DHT22;14973;51.460;7.008;2023-05-10T10:00:43;18.80;57.70
27534;DHT22;14973;51.460;7.008;2023-05-10T10:03:16;19.00;1.00
27534;DHT22;14973;51.460;7.008;2023-05-10T10:05:42;19.20;1.00
27534;DHT22;14973;51.460;7.008;2023-05-10T10:08:08;19.50;14.40
27534;DHT22;14973;51.460;7.008;2023-05-10T10:10:34;19.60;1.00
27534;DHT22;14973;51.460;7.008;2023-05-10T10:13:01;19.70;1.00
27534;DHT22;14973;51.460;7.008;2023-05-10T10:15:26;19.90;99.90
27534;DHT22;14973;51.460;7.008;2023-05-10T10:17:52;20.10;99.90
27534;DHT22;14973;51.460;7.008;2023-05-10T10:20:19;19.80;21.70
27534;DHT22;14973;51.460;7.008;2023-05-10T10:22:45;19.80;13.30
27534;DHT22;14973;51.460;7.008;2023-05-10T10:25:17;19.60;1.00
27534;DHT22;14973;51.460;7.008;2023-05-10T10:32:59;19.20;67.20
27534;DHT22;14973;51.460;7.008;2023-05-10T10:35:28;19.30;21.60
27534;DHT22;14973;51.460;7.008;2023-05-10T10:37:54;19.60;38.70
27534;DHT22;14973;51.460;7.008;2023-05-10T10:40:27;19.50;5.90
27534;DHT22;14973;51.460;7.008;2023-05-10T10:42:53;19.20;21.00
27534;DHT22;14973;51.460;7.008;2023-05-10T10:45:19;19.00;99.90
27534;DHT22;14973;51.460;7.008;2023-05-10T10:47:45;18.70;99.90
27534;DHT22;14973;51.460;7.008;2023-05-10T10:50:10;18.20;99.90
27534;DHT22;14973;51.460;7.008;2023-05-10T10:52:39;17.80;28.10
27534;DHT22;14973;51.460;7.008;2023-05-10T10:57:32;18.00;99.90
27534;DHT22;14973;51.460;7.008;2023-05-10T11:07:52;18.60;1.00
27534;DHT22;14973;51.460;7.008;2023-05-10T11:10:21;18.80;99.90
27534;DHT22;14973;51.460;7.008;2023-05-10T11:12:51;18.60;99.90
27534;DHT22;14973;51.460;7.008;2023-05-10T11:15:17;18.60;99.90
27534;DHT22;14973;51.460;7.008;2023-05-10T11:17:42;18.70;1.00
27534;DHT22;14973;51.460;7.008;2023-05-10T11:20:13;18.90;99.90
27534;DHT22;14973;51.460;7.008;2023-05-10T11:22:49;18.90;99.90
27534;DHT22;14973;51.460;7.008;2023-05-10T11:25:15;18.70;99.90
27534;DHT22;14973;51.460;7.008;2023-05-10T11:27:41;18.80;1.00
27534;DHT22;14973;51.460;7.008;2023-05-10T11:30:07;19.00;99.90
27534;DHT22;14973;51.460;7.008;2023-05-10T11:32:36;18.70;1.00
27534;DHT22;14973;51.460;7.008;2023-05-10T11:35:06;18.90;1.00
27534;DHT22;14973;51.460;7.008;2023-05-10T11:37:32;18.60;1.00
27534;DHT22;14973;51.460;7.008;2023-05-10T11:39:59;18.50;1.00
27534;DHT22;14973;51.460;7.008;2023-05-10T11:42:25;18.10;1.00
27534;DHT22;14973;51.460;7.008;2023-05-10T11:44:50;17.80;1.00
27534;DHT22;14973;51.460;7.008;2023-05-10T11:47:16;17.70;99.90
27534;DHT22;14973;51.460;7.008;2023-05-10T11:49:45;17.60;1.00
27534;DHT22;14973;51.460;7.008;2023-05-10T11:52:10;17.60;99.90
27534;DHT22;14973;51.460;7.008;2023-05-10T11:54:36;17.70;99.90
27534;DHT22;14973;51.460;7.008;2023-05-10T11:57:02;18.00;1.00
27534;DHT22;14973;51.460;7.008;2023-05-10T11:59:28;18.50;32.40
27534;DHT22;14973;51.460;7.008;2023-05-10T12:01:53;19.10;99.90
27534;DHT22;14973;51.460;7.008;2023-05-10T12:04:19;19.50;1.00
27534;DHT22;14973;51.460;7.008;2023-05-10T12:06:45;19.90;99.90
27534;DHT22;14973;51.460;7.008;2023-05-10T12:09:11;20.10;99.90
27534;DHT22;14973;51.460;7.008;2023-05-10T12:11:38;20.20;49.50
27534;DHT22;14973;51.460;7.008;2023-05-10T12:14:05;20.10;1.00
27534;DHT22;14973;51.460;7.008;2023-05-10T12:16:31;19.90;1.00
27534;DHT22;14973;51.460;7.008;2023-05-10T12:18:57;20.20;1.00
27534;DHT22;14973;51.460;7.008;2023-05-10T12:21:23;20.30;1.00
27534;DHT22;14973;51.460;7.008;2023-05-10T12:23:53;20.30;1.00
27534;DHT22;14973;51.460;7.008;2023-05-10T12:26:22;20.20;1.00
27534;DHT22;14973;51.460;7.008;2023-05-10T12:28:48;20.20;1.00
27534;DHT22;14973;51.460;7.008;2023-05-10T12:31:14;20.40;1.00
27534;DHT22;14973;51.460;7.008;2023-05-10T12:33:41;20.40;1.00
27534;DHT22;14973;51.460;7.008;2023-05-10T12:36:11;20.50;99.90
27534;DHT22;14973;51.460;7.008;2023-05-10T12:38:38;20.70;99.90
27534;DHT22;14973;51.460;7.008;2023-05-10T12:41:08;20.80;99.90
27534;DHT22;14973;51.460;7.008;2023-05-10T12:43:35;21.00;99.90
27534;DHT22;14973;51.460;7.008;2023-05-10T12:46:07;21.10;99.90
27534;DHT22;14973;51.460;7.008;2023-05-10T12:48:33;20.80;99.90
27534;DHT22;14973;51.460;7.008;2023-05-10T12:51:00;21.10;99.90
27534;DHT22;14973;51.460;7.008;2023-05-10T12:53:25;21.40;99.90
27534;DHT22;14973;51.460;7.008;2023-05-10T12:55:51;21.30;99.90
27534;DHT22;14973;51.460;7.008;2023-05-10T12:58:17;21.40;99.90
27534;DHT22;14973;51.460;7.008;2023-05-10T13:00:42;21.60;99.90
27534;DHT22;14973;51.460;7.008;2023-05-10T13:03:09;21.50;99.90
27534;DHT22;14973;51.460;7.008;2023-05-10T13:05:36;21.30;99.90
27534;DHT22;14973;51.460;7.008;2023-05-10T13:08:02;21.50;99.90
27534;DHT22;14973;51.460;7.008;2023-05-10T13:10:30;21.60;99.90
27534;DHT22;14973;51.460;7.008;2023-05-10T13:12:57;21.80;99.90
27534;DHT22;14973;51.460;7.008;2023-05-10T13:15:23;21.90;99.90
27534;DHT22;14973;51.460;7.008;2023-05-10T13:17:48;22.00;83.60
27534;DHT22;14973;51.460;7.008;2023-05-10T13:20:14;21.80;70.60
27534;DHT22;14973;51.460;7.008;2023-05-10T13:22:40;21.80;74.40
27534;DHT22;14973;51.460;7.008;2023-05-10T13:25:06;21.90;58.70
27534;DHT22;14973;51.460;7.008;2023-05-10T13:27:32;22.00;45.80
27534;DHT22;14973;51.460;7.008;2023-05-10T13:29:57;22.20;24.80
27534;DHT22;14973;51.460;7.008;2023-05-10T13:32:24;22.30;25.40
27534;DHT22;14973;51.460;7.008;2023-05-10T13:34:51;22.40;4.00
27534;DHT22;14973;51.460;7.008;2023-05-10T13:37:16;22.30;1.00
27534;DHT22;14973;51.460;7.008;2023-05-10T13:39:42;22.40;1.00
27534;DHT22;14973;51.460;7.008;2023-05-10T13:42:08;22.20;1.00
27534;DHT22;14973;51.460;7.008;2023-05-10T13:44:33;21.90;1.00
27534;DHT22;14973;51.460;7.008;2023-05-10T13:46:59;21.80;1.00
27534;DHT22;14973;51.460;7.008;2023-05-10T13:49:25;21.70;1.00
27534;DHT22;14973;51.460;7.008;2023-05-10T13:51:50;21.60;1.00
27534;DHT22;14973;51.460;7.008;2023-05-10T13:54:17;21.50;1.00
27534;DHT22;14973;51.460;7.008;2023-05-10T13:56:45;21.40;1.00
27534;DHT22;14973;51.460;7.008;2023-05-10T13:59:12;21.20;3.10
27534;DHT22;14973;51.460;7.008;2023-05-10T14:01:39;21.30;1.00
27534;DHT22;14973;51.460;7.008;2023-05-10T14:04:05;21.20;1.00
27534;DHT22;14973;51.460;7.008;2023-05-10T14:06:32;21.20;6.40
27534;DHT22;14973;51.460;7.008;2023-05-10T14:08:58;21.30;2.70
27534;DHT22;14973;51.460;7.008;2023-05-10T14:11:24;21.20;7.80
27534;DHT22;14973;51.460;7.008;2023-05-10T14:13:49;21.30;1.00
27534;DHT22;14973;51.460;7.008;2023-05-10T14:16:15;21.30;1.00
27534;DHT22;14973;51.460;7.008;2023-05-10T14:18:41;21.40;1.00
27534;DHT22;14973;51.460;7.008;2023-05-10T14:21:07;21.50;1.00
27534;DHT22;14973;51.460;7.008;2023-05-10T14:23:32;21.60;1.00
27534;DHT22;14973;51.460;7.008;2023-05-10T14:25:58;21.70;1.00
27534;DHT22;14973;51.460;7.008;2023-05-10T14:28:24;21.80;1.00
27534;DHT22;14973;51.460;7.008;2023-05-10T14:30:50;21.90;1.00
27534;DHT22;14973;51.460;7.008;2023-05-10T14:33:16;21.60;1.00
27534;DHT22;14973;51.460;7.008;2023-05-10T14:35:42;21.40;1.00
27534;DHT22;14973;51.460;7.008;2023-05-10T14:38:08;21.30;1.00
27534;DHT22;14973;51.460;7.008;2023-05-10T14:40:33;21.30;1.00
27534;DHT22;14973;51.460;7.008;2023-05-10T14:42:59;21.40;1.00
27534;DHT22;14973;51.460;7.008;2023-05-10T14:45:25;21.60;1.00
27534;DHT22;14973;51.460;7.008;2023-05-10T14:47:51;21.60;1.00
27534;DHT22;14973;51.460;7.008;2023-05-10T14:50:17;21.50;1.00
27534;DHT22;14973;51.460;7.008;2023-05-10T14:52:43;21.50;1.00
27534;DHT22;14973;51.460;7.008;2023-05-10T14:55:09;21.40;1.00
27534;DHT22;14973;51.460;7.008;2023-05-10T14:57:35;21.30;1.00
27534;DHT22;14973;51.460;7.008;2023-05-10T15:00:01;21.20;1.00
27534;DHT22;14973;51.460;7.008;2023-05-10T15:02:27;21.10;1.00
27534;DHT22;14973;51.460;7.008;2023-05-10T15:04:53;21.00;1.00
27534;DHT22;14973;51.460;7.008;2023-05-10T15:07:19;21.10;1.00
27534;DHT22;14973;51.460;7.008;2023-05-10T15:09:44;21.30;1.00
27534;DHT22;14973;51.460;7.008;2023-05-10T15:12:10;21.30;1.00
27534;DHT22;14973;51.460;7.008;2023-05-10T15:14:36;21.20;1.00
27534;DHT22;14973;51.460;7.008;2023-05-10T15:17:02;21.40;1.00
27534;DHT22;14973;51.460;7.008;2023-05-10T15:19:28;21.30;1.00
27534;DHT22;14973;51.460;7.008;2023-05-10T15:21:58;21.00;1.00
27534;DHT22;14973;51.460;7.008;2023-05-10T15:24:24;20.90;1.00
27534;DHT22;14973;51.460;7.008;2023-05-10T15:26:50;20.60;1.00
27534;DHT22;14973;51.460;7.008;2023-05-10T15:29:15;20.40;9.90
27534;DHT22;14973;51.460;7.008;2023-05-10T15:31:45;20.30;23.40
27534;DHT22;14973;51.460;7.008;2023-05-10T15:34:11;20.10;31.40
27534;DHT22;14973;51.460;7.008;2023-05-10T15:36:37;20.10;42.60
27534;DHT22;14973;51.460;7.008;2023-05-10T15:39:02;20.10;22.40
27534;DHT22;14973;51.460;7.008;2023-05-10T15:41:28;20.30;16.60
27534;DHT22;14973;51.460;7.008;2023-05-10T15:43:54;20.30;22.40
27534;DHT22;14973;51.460;7.008;2023-05-10T15:46:21;20.10;27.50
27534;DHT22;14973;51.460;7.008;2023-05-10T15:48:46;19.90;27.90
27534;DHT22;14973;51.460;7.008;2023-05-10T15:51:12;19.90;19.80
27534;DHT22;14973;51.460;7.008;2023-05-10T15:53:38;19.80;23.60
27534;DHT22;14973;51.460;7.008;2023-05-10T15:56:04;20.00;23.70
27534;DHT22;14973;51.460;7.008;2023-05-10T15:58:30;19.90;26.50
27534;DHT22;14973;51.460;7.008;2023-05-10T16:00:55;19.90;27.90
27534;DHT22;14973;51.460;7.008;2023-05-10T16:03:22;19.80;20.20
27534;DHT22;14973;51.460;7.008;2023-05-10T16:05:47;19.80;36.80
27534;DHT22;14973;51.460;7.008;2023-05-10T16:08:13;19.70;58.50
27534;DHT22;14973;51.460;7.008;2023-05-10T16:10:38;19.70;85.50
27534;DHT22;14973;51.460;7.008;2023-05-10T16:13:04;19.40;99.90